sensor_id;sensor_type;location;lat;lon;timestamp;pressure;altitude;pressure_sealevel;temperature;humidity
28306;BME280;7516;43.570;1.448;2023-12-20T00:01:04;100691.41;;;7.72;100.00
28306;BME280;7516;43.570;1.448;2023-12-20T00:03:31;100689.94;;;7.79;100.00
28306;BME280;7516;43.570;1.448;2023-12-20T00:06:00;100683.19;;;7.76;100.00
28306;BME280;7516;43.570;1.448;2023-12-20T00:08:28;100679.31;;;7.71;100.00
28306;BME280;7516;43.570;1.448;2023-12-20T00:10:55;100673.34;;;7.80;100.00
28306;BME280;7516;43.570;1.448;2023-12-20T00:13:24;100674.72;;;7.84;100.00
28306;BME280;7516;43.570;1.448;2023-12-20T00:15:52;100674.03;;;7.82;100.00
28306;BME280;7516;43.570;1.448;2023-12-20T00:18:19;100671.94;;;7.76;100.00
28306;BME280;7516;43.570;1.448;2023-12-20T00:20:47;100672.19;;;7.73;100.00
28306;BME280;7516;43.570;1.448;2023-12-20T00:23:14;100675.63;;;7.73;100.00
28306;BME280;7516;43.570;1.448;2023-12-20T00:25:42;100668.78;;;7.72;100.00
28306;BME280;7516;43.570;1.448;2023-12-20T00:28:09;100661.41;;;7.87;100.00
28306;BME280;7516;43.570;1.448;2023-12-20T00:30:38;100655.66;;;7.93;100.00
28306;BME280;7516;43.570;1.448;2023-12-20T00:33:05;100644.00;;;7.97;100.00
28306;BME280;7516;43.570;1.448;2023-12-20T00:35:33;100643.31;;;7.95;100.00
28306;BME280;7516;43.570;1.448;2023-12-20T00:38:00;100645.91;;;7.95;100.00
28306;BME280;7516;43.570;1.448;2023-12-20T00:40:28;100638.78;;;7.97;100.00
28306;BME280;7516;43.570;1.448;2023-12-20T00:42:56;100643.19;;;7.97;100.00
28306;BME280;7516;43.570;1.448;2023-12-20T00:45:23;100628.34;;;7.97;100.00
28306;BME280;7516;43.570;1.448;2023-12-20T00:47:52;100623.25;;;7.96;100.00
28306;BME280;7516;43.570;1.448;2023-12-20T00:50:20;100616.66;;;8.01;100.00
28306;BME280;7516;43.570;1.448;2023-12-20T00:52:48;100612.59;;;8.08;100.00
28306;BME280;7516;43.570;1.448;2023-12-20T00:55:15;100612.16;;;8.03;100.00
28306;BME280;7516;43.570;1.448;2023-12-20T00:57:43;100616.41;;;8.04;100.00
28306;BME280;7516;43.570;1.448;2023-12-20T01:00:11;100614.91;;;8.11;100.00
28306;BME280;7516;43.570;1.448;2023-12-20T01:02:39;100610.53;;;8.12;100.00
28306;BME280;7516;43.570;1.448;2023-12-20T01:05:09;100615.34;;;8.07;100.00
28306;BME280;7516;43.570;1.448;2023-12-20T01:07:36;100612.03;;;8.05;100.00
28306;BME280;7516;43.570;1.448;2023-12-20T01:10:04;100606.38;;;8.09;100.00
28306;BME280;7516;43.570;1.448;2023-12-20T01:12:31;100603.53;;;8.12;100.00
28306;BME280;7516;43.570;1.448;2023-12-20T01:14:59;100604.47;;;8.11;100.00
28306;BME280;7516;43.570;1.448;2023-12-20T01:17:26;100599.53;;;8.08;100.00
28306;BME280;7516;43.570;1.448;2023-12-20T01:19:54;100599.00;;;8.14;100.00
28306;BME280;7516;43.570;1.448;2023-12-20T01:22:23;100592.81;;;8.15;100.00
28306;BME280;7516;43.570;1.448;2023-12-20T01:24:50;100594.19;;;8.19;100.00
28306;BME280;7516;43.570;1.448;2023-12-20T01:27:18;100588.84;;;8.21;100.00
28306;BME280;7516;43.570;1.448;2023-12-20T01:29:45;100583.91;;;8.18;100.00
28306;BME280;7516;43.570;1.448;2023-12-20T01:32:13;100597.75;;;8.18;100.00
28306;BME280;7516;43.570;1.448;2023-12-20T01:34:40;100583.34;;;8.24;100.00
28306;BME280;7516;43.570;1.448;2023-12-20T01:37:08;100586.91;;;8.23;100.00
28306;BME280;7516;43.570;1.448;2023-12-20T01:39:36;100586.78;;;8.24;100.00
28306;BME280;7516;43.570;1.448;2023-12-20T01:42:04;100578.97;;;8.24;100.00
28306;BME280;7516;43.570;1.448;2023-12-20T01:44:32;100588.72;;;8.22;100.00
28306;BME280;7516;43.570;1.448;2023-12-20T01:46:59;100574.81;;;8.12;100.00
28306;BME280;7516;43.570;1.448;2023-12-20T01:49:28;100580.03;;;8.12;100.00
28306;BME280;7516;43.570;1.448;2023-12-20T01:51:56;100570.41;;;8.13;100.00
28306;BME280;7516;43.570;1.448;2023-12-20T01:54:26;100572.47;;;8.19;100.00
28306;BME280;7516;43.570;1.448;2023-12-20T01:56:56;100568.63;;;8.13;100.00
28306;BME280;7516;43.570;1.448;2023-12-20T01:59:24;100566.28;;;8.20;100.00
28306;BME280;7516;43.570;1.448;2023-12-20T02:01:51;100565.47;;;8.19;100.00
28306;BME280;7516;43.570;1.448;2023-12-20T02:04:19;100552.00;;;8.14;100.00
28306;BME280;7516;43.570;1.448;2023-12-20T02:06:47;100553.66;;;8.15;100.00
28306;BME280;7516;43.570;1.448;2023-12-20T02:09:15;100542.66;;;8.21;100.00
28306;BME280;7516;43.570;1.448;2023-12-20T02:11:44;100541.31;;;8.17;100.00
28306;BME280;7516;43.570;1.448;2023-12-20T02:14:12;100538.41;;;8.20;100.00
28306;BME280;7516;43.570;1.448;2023-12-20T02:16:40;100538.00;;;8.25;100.00
28306;BME280;7516;43.570;1.448;2023-12-20T02:19:14;100534.03;;;8.30;100.00
28306;BME280;7516;43.570;1.448;2023-12-20T02:21:43;100531.41;;;8.30;100.00
28306;BME280;7516;43.570;1.448;2023-12-20T02:24:10;100523.72;;;8.29;100.00
28306;BME280;7516;43.570;1.448;2023-12-20T02:26:38;100520.59;;;8.35;100.00
28306;BME280;7516;43.570;1.448;2023-12-20T02:29:06;100514.94;;;8.40;100.00
28306;BME280;7516;43.570;1.448;2023-12-20T02:31:34;100505.88;;;8.44;100.00
28306;BME280;7516;43.570;1.448;2023-12-20T02:34:01;100506.84;;;8.43;100.00
28306;BME280;7516;43.570;1.448;2023-12-20T02:36:29;100507.81;;;8.42;100.00
28306;BME280;7516;43.570;1.448;2023-12-20T02:38:58;100509.03;;;8.38;100.00
28306;BME280;7516;43.570;1.448;2023-12-20T02:41:25;100517.81;;;8.37;100.00
28306;BME280;7516;43.570;1.448;2023-12-20T02:43:53;100504.63;;;8.38;100.00
28306;BME280;7516;43.570;1.448;2023-12-20T02:46:20;100510.56;;;8.40;100.00
28306;BME280;7516;43.570;1.448;2023-12-20T02:48:48;100501.19;;;8.38;100.00
28306;BME280;7516;43.570;1.448;2023-12-20T02:51:15;100506.97;;;8.41;100.00
28306;BME280;7516;43.570;1.448;2023-12-20T02:53:43;100502.72;;;8.40;100.00
28306;BME280;7516;43.570;1.448;2023-12-20T02:56:11;100496.81;;;8.38;100.00
28306;BME280;7516;43.570;1.448;2023-12-20T02:58:40;100485.66;;;8.46;100.00
28306;BME280;7516;43.570;1.448;2023-12-20T03:01:08;100481.81;;;8.40;100.00
28306;BME280;7516;43.570;1.448;2023-12-20T03:03:35;100472.06;;;8.42;100.00
28306;BME280;7516;43.570;1.448;2023-12-20T03:06:03;100470.53;;;8.49;100.00
28306;BME280;7516;43.570;1.448;2023-12-20T03:08:31;100466.41;;;8.47;100.00
28306;BME280;7516;43.570;1.448;2023-12-20T03:11:00;100463.41;;;8.51;100.00
28306;BME280;7516;43.570;1.448;2023-12-20T03:13:29;100458.44;;;8.48;100.00
28306;BME280;7516;43.570;1.448;2023-12-20T03:15:56;100451.44;;;8.49;100.00
28306;BME280;7516;43.570;1.448;2023-12-20T03:18:24;100447.19;;;8.48;100.00
28306;BME280;7516;43.570;1.448;2023-12-20T03:20:54;100452.00;;;8.43;100.00
28306;BME280;7516;43.570;1.448;2023-12-20T03:23:21;100455.72;;;8.40;100.00
28306;BME280;7516;43.570;1.448;2023-12-20T03:25:49;100460.81;;;8.42;100.00
28306;BME280;7516;43.570;1.448;2023-12-20T03:28:16;100461.91;;;8.39;100.00
28306;BME280;7516;43.570;1.448;2023-12-20T03:30:45;100449.53;;;8.41;100.00
28306;BME280;7516;43.570;1.448;2023-12-20T03:33:12;100439.66;;;8.35;100.00
28306;BME280;7516;43.570;1.448;2023-12-20T03:35:40;100443.22;;;8.34;100.00
28306;BME280;7516;43.570;1.448;2023-12-20T03:38:07;100445.84;;;8.34;100.00
28306;BME280;7516;43.570;1.448;2023-12-20T03:40:35;100446.50;;;8.26;100.00
28306;BME280;7516;43.570;1.448;2023-12-20T03:43:03;100454.75;;;8.32;100.00
28306;BME280;7516;43.570;1.448;2023-12-20T03:45:30;100451.72;;;8.26;100.00
28306;BME280;7516;43.570;1.448;2023-12-20T03:47:59;100455.81;;;8.19;100.00
28306;BME280;7516;43.570;1.448;2023-12-20T03:50:27;100451.28;;;8.21;100.00
28306;BME280;7516;43.570;1.448;2023-12-20T03:52:55;100446.22;;;8.10;100.00
28306;BME280;7516;43.570;1.448;2023-12-20T03:55:23;100444.28;;;8.12;100.00
28306;BME280;7516;43.570;1.448;2023-12-20T03:57:50;100435.50;;;8.13;100.00
28306;BME280;7516;43.570;1.448;2023-12-20T04:00:18;100434.69;;;8.03;100.00
28306;BME280;7516;43.570;1.448;2023-12-20T04:02:45;100432.50;;;8.08;100.00
28306;BME280;7516;43.570;1.448;2023-12-20T04:05:14;100428.09;;;8.09;100.00
28306;BME280;7516;43.570;1.448;2023-12-20T04:07:42;100423.16;;;8.15;100.00
28306;BME280;7516;43.570;1.448;2023-12-20T04:10:10;100431.38;;;8.11;100.00
28306;BME280;7516;43.570;1.448;2023-12-20T04:12:37;100419.31;;;8.00;100.00
28306;BME280;7516;43.570;1.448;2023-12-20T04:15:05;100424.66;;;7.89;100.00
28306;BME280;7516;43.570;1.448;2023-12-20T04:17:35;100413.66;;;8.05;100.00
28306;BME280;7516;43.570;1.448;2023-12-20T04:20:03;100412.56;;;8.07;100.00
28306;BME280;7516;43.570;1.448;2023-12-20T04:22:32;100406.66;;;8.05;100.00
28306;BME280;7516;43.570;1.448;2023-12-20T04:25:00;100405.84;;;8.05;100.00
28306;BME280;7516;43.570;1.448;2023-12-20T04:27:27;100404.75;;;8.07;100.00
28306;BME280;7516;43.570;1.448;2023-12-20T04:29:55;100396.34;;;8.13;100.00
28306;BME280;7516;43.570;1.448;2023-12-20T04:32:23;100404.19;;;8.04;100.00
28306;BME280;7516;43.570;1.448;2023-12-20T04:34:50;100398.41;;;8.10;100.00
28306;BME280;7516;43.570;1.448;2023-12-20T04:37:18;100406.38;;;8.18;100.00
28306;BME280;7516;43.570;1.448;2023-12-20T04:39:46;100393.47;;;8.16;100.00
28306;BME280;7516;43.570;1.448;2023-12-20T04:42:14;100394.69;;;8.12;100.00
28306;BME280;7516;43.570;1.448;2023-12-20T04:44:41;100397.03;;;8.15;100.00
28306;BME280;7516;43.570;1.448;2023-12-20T04:47:09;100392.66;;;8.06;100.00
28306;BME280;7516;43.570;1.448;2023-12-20T04:49:37;100392.09;;;8.12;100.00
28306;BME280;7516;43.570;1.448;2023-12-20T04:52:05;100389.91;;;8.08;100.00
28306;BME280;7516;43.570;1.448;2023-12-20T04:54:33;100384.25;;;8.12;100.00
28306;BME280;7516;43.570;1.448;2023-12-20T04:57:02;100386.88;;;8.12;100.00
28306;BME280;7516;43.570;1.448;2023-12-20T04:59:29;100379.03;;;8.12;100.00
28306;BME280;7516;43.570;1.448;2023-12-20T05:01:57;100377.50;;;8.19;100.00
28306;BME280;7516;43.570;1.448;2023-12-20T05:04:24;100372.16;;;8.21;100.00
28306;BME280;7516;43.570;1.448;2023-12-20T05:06:52;100372.72;;;8.24;100.00
28306;BME280;7516;43.570;1.448;2023-12-20T05:09:19;100369.97;;;8.16;100.00
28306;BME280;7516;43.570;1.448;2023-12-20T05:11:47;100374.25;;;8.17;100.00
28306;BME280;7516;43.570;1.448;2023-12-20T05:14:15;100383.41;;;8.21;100.00
28306;BME280;7516;43.570;1.448;2023-12-20T05:16:43;100378.88;;;8.23;100.00
28306;BME280;7516;43.570;1.448;2023-12-20T05:19:10;100378.34;;;8.20;100.00
28306;BME280;7516;43.570;1.448;2023-12-20T05:21:38;100384.81;;;8.25;100.00
28306;BME280;7516;43.570;1.448;2023-12-20T05:24:06;100379.97;;;8.21;100.00
28306;BME280;7516;43.570;1.448;2023-12-20T05:26:33;100376.00;;;8.36;100.00
28306;BME280;7516;43.570;1.448;2023-12-20T05:29:00;100388.22;;;8.36;100.00
28306;BME280;7516;43.570;1.448;2023-12-20T05:31:29;100384.00;;;8.35;100.00
28306;BME280;7516;43.570;1.448;2023-12-20T05:33:57;100397.44;;;8.40;100.00
28306;BME280;7516;43.570;1.448;2023-12-20T05:36:25;100394.13;;;8.38;100.00
28306;BME280;7516;43.570;1.448;2023-12-20T05:38:54;100403.09;;;8.35;100.00
28306;BME280;7516;43.570;1.448;2023-12-20T05:41:22;100403.63;;;8.39;100.00
28306;BME280;7516;43.570;1.448;2023-12-20T05:43:49;100407.31;;;8.46;100.00
28306;BME280;7516;43.570;1.448;2023-12-20T05:46:17;100410.75;;;8.46;100.00
28306;BME280;7516;43.570;1.448;2023-12-20T05:48:46;100411.53;;;8.56;100.00
28306;BME280;7516;43.570;1.448;2023-12-20T05:51:13;100416.78;;;8.56;100.00
28306;BME280;7516;43.570;1.448;2023-12-20T05:53:41;100411.28;;;8.59;100.00
28306;BME280;7516;43.570;1.448;2023-12-20T05:56:08;100425.31;;;8.58;100.00
28306;BME280;7516;43.570;1.448;2023-12-20T05:58:36;100423.50;;;8.59;100.00
28306;BME280;7516;43.570;1.448;2023-12-20T06:01:04;100431.72;;;8.64;100.00
28306;BME280;7516;43.570;1.448;2023-12-20T06:03:32;100436.97;;;8.64;100.00
28306;BME280;7516;43.570;1.448;2023-12-20T06:06:05;100435.31;;;8.63;100.00
28306;BME280;7516;43.570;1.448;2023-12-20T06:08:33;100446.44;;;8.65;100.00
28306;BME280;7516;43.570;1.448;2023-12-20T06:11:01;100448.94;;;8.66;100.00
28306;BME280;7516;43.570;1.448;2023-12-20T06:13:28;100448.94;;;8.66;100.00
28306;BME280;7516;43.570;1.448;2023-12-20T06:15:56;100448.66;;;8.70;100.00
28306;BME280;7516;43.570;1.448;2023-12-20T06:18:24;100451.09;;;8.71;100.00
28306;BME280;7516;43.570;1.448;2023-12-20T06:20:51;100459.94;;;8.70;100.00
28306;BME280;7516;43.570;1.448;2023-12-20T06:23:20;100472.00;;;8.71;100.00
28306;BME280;7516;43.570;1.448;2023-12-20T06:25:48;100458.94;;;8.71;100.00
28306;BME280;7516;43.570;1.448;2023-12-20T06:28:15;100477.78;;;8.75;100.00
28306;BME280;7516;43.570;1.448;2023-12-20T06:30:43;100476.81;;;8.76;100.00
28306;BME280;7516;43.570;1.448;2023-12-20T06:33:10;100481.78;;;8.79;100.00
28306;BME280;7516;43.570;1.448;2023-12-20T06:35:37;100481.59;;;8.80;100.00
28306;BME280;7516;43.570;1.448;2023-12-20T06:38:05;100488.47;;;8.81;100.00
28306;BME280;7516;43.570;1.448;2023-12-20T06:40:34;100487.66;;;8.81;100.00
28306;BME280;7516;43.570;1.448;2023-12-20T06:43:01;100495.22;;;8.84;100.00
28306;BME280;7516;43.570;1.448;2023-12-20T06:45:29;100493.44;;;8.84;100.00
28306;BME280;7516;43.570;1.448;2023-12-20T06:47:56;100515.84;;;8.87;100.00
28306;BME280;7516;43.570;1.448;2023-12-20T06:50:24;100511.28;;;8.89;100.00
28306;BME280;7516;43.570;1.448;2023-12-20T06:52:52;100509.50;;;8.89;100.00
28306;BME280;7516;43.570;1.448;2023-12-20T06:55:19;100523.13;;;8.93;100.00
28306;BME280;7516;43.570;1.448;2023-12-20T06:57:48;100518.88;;;8.92;100.00
28306;BME280;7516;43.570;1.448;2023-12-20T07:00:16;100530.00;;;8.94;100.00
28306;BME280;7516;43.570;1.448;2023-12-20T07:02:46;100533.31;;;8.96;100.00
28306;BME280;7516;43.570;1.448;2023-12-20T07:05:16;100536.59;;;8.98;100.00
28306;BME280;7516;43.570;1.448;2023-12-20T07:07:46;100551.31;;;8.99;100.00
28306;BME280;7516;43.570;1.448;2023-12-20T07:10:13;100554.47;;;9.02;100.00
28306;BME280;7516;43.570;1.448;2023-12-20T07:12:41;100559.69;;;9.02;100.00
28306;BME280;7516;43.570;1.448;2023-12-20T07:15:10;100585.84;;;9.02;100.00
28306;BME280;7516;43.570;1.448;2023-12-20T07:17:38;100567.69;;;9.01;100.00
28306;BME280;7516;43.570;1.448;2023-12-20T07:20:07;100559.16;;;8.99;100.00
28306;BME280;7516;43.570;1.448;2023-12-20T07:22:36;100579.22;;;8.98;100.00
28306;BME280;7516;43.570;1.448;2023-12-20T07:25:06;100582.00;;;8.97;100.00
28306;BME280;7516;43.570;1.448;2023-12-20T07:27:34;100582.16;;;8.95;100.00
28306;BME280;7516;43.570;1.448;2023-12-20T07:30:01;100592.59;;;8.95;100.00
28306;BME280;7516;43.570;1.448;2023-12-20T07:32:30;100611.72;;;8.86;100.00
28306;BME280;7516;43.570;1.448;2023-12-20T07:34:59;100597.16;;;8.84;100.00
28306;BME280;7516;43.570;1.448;2023-12-20T07:37:26;100604.28;;;8.82;100.00
28306;BME280;7516;43.570;1.448;2023-12-20T07:39:54;100613.25;;;8.79;100.00
28306;BME280;7516;43.570;1.448;2023-12-20T07:42:22;100620.66;;;8.74;100.00
28306;BME280;7516;43.570;1.448;2023-12-20T07:44:49;100626.84;;;8.73;100.00
28306;BME280;7516;43.570;1.448;2023-12-20T07:47:16;100629.59;;;8.72;100.00
28306;BME280;7516;43.570;1.448;2023-12-20T07:49:49;100626.31;;;8.70;100.00
28306;BME280;7516;43.570;1.448;2023-12-20T07:52:17;100657.25;;;8.74;100.00
28306;BME280;7516;43.570;1.448;2023-12-20T07:54:45;100650.66;;;8.70;100.00
28306;BME280;7516;43.570;1.448;2023-12-20T07:57:13;100667.00;;;8.72;100.00
28306;BME280;7516;43.570;1.448;2023-12-20T07:59:40;100662.91;;;8.70;100.00
28306;BME280;7516;43.570;1.448;2023-12-20T08:02:08;100672.78;;;8.76;100.00
28306;BME280;7516;43.570;1.448;2023-12-20T08:04:36;100675.00;;;8.71;100.00
28306;BME280;7516;43.570;1.448;2023-12-20T08:07:05;100686.25;;;8.71;100.00
28306;BME280;7516;43.570;1.448;2023-12-20T08:09:32;100701.66;;;8.74;100.00
28306;BME280;7516;43.570;1.448;2023-12-20T08:12:03;100693.13;;;8.62;100.00
28306;BME280;7516;43.570;1.448;2023-12-20T08:14:30;100697.69;;;8.60;100.00
28306;BME280;7516;43.570;1.448;2023-12-20T08:16:58;100704.56;;;8.61;100.00
28306;BME280;7516;43.570;1.448;2023-12-20T08:19:26;100712.78;;;8.57;100.00
28306;BME280;7516;43.570;1.448;2023-12-20T08:21:53;100715.94;;;8.51;100.00
28306;BME280;7516;43.570;1.448;2023-12-20T08:24:22;100718.25;;;8.54;100.00
28306;BME280;7516;43.570;1.448;2023-12-20T08:26:49;100726.38;;;8.51;100.00
28306;BME280;7516;43.570;1.448;2023-12-20T08:29:17;100737.38;;;8.54;100.00
28306;BME280;7516;43.570;1.448;2023-12-20T08:31:45;100734.50;;;8.57;100.00
28306;BME280;7516;43.570;1.448;2023-12-20T08:34:12;100739.16;;;8.54;100.00
28306;BME280;7516;43.570;1.448;2023-12-20T08:36:41;100753.63;;;8.58;100.00
28306;BME280;7516;43.570;1.448;2023-12-20T08:39:08;100765.44;;;8.52;100.00
28306;BME280;7516;43.570;1.448;2023-12-20T08:41:37;100757.31;;;8.55;100.00
28306;BME280;7516;43.570;1.448;2023-12-20T08:44:05;100764.31;;;8.55;100.00
28306;BME280;7516;43.570;1.448;2023-12-20T08:46:32;100789.38;;;8.57;100.00
28306;BME280;7516;43.570;1.448;2023-12-20T08:49:00;100778.34;;;8.54;100.00
28306;BME280;7516;43.570;1.448;2023-12-20T08:51:30;100793.06;;;8.55;100.00
28306;BME280;7516;43.570;1.448;2023-12-20T08:53:58;100793.19;;;8.53;100.00
28306;BME280;7516;43.570;1.448;2023-12-20T08:56:25;100799.09;;;8.55;100.00
28306;BME280;7516;43.570;1.448;2023-12-20T08:58:54;100805.44;;;8.53;100.00
28306;BME280;7516;43.570;1.448;2023-12-20T09:01:22;100799.69;;;8.59;100.00
28306;BME280;7516;43.570;1.448;2023-12-20T09:03:50;100807.22;;;8.52;100.00
28306;BME280;7516;43.570;1.448;2023-12-20T09:06:17;100810.13;;;8.59;100.00
28306;BME280;7516;43.570;1.448;2023-12-20T09:08:45;100817.53;;;8.54;100.00
28306;BME280;7516;43.570;1.448;2023-12-20T09:11:12;100824.28;;;8.56;100.00
28306;BME280;7516;43.570;1.448;2023-12-20T09:13:40;100821.53;;;8.58;100.00
28306;BME280;7516;43.570;1.448;2023-12-20T09:16:09;100824.31;;;8.66;100.00
28306;BME280;7516;43.570;1.448;2023-12-20T09:18:37;100843.66;;;8.54;100.00
28306;BME280;7516;43.570;1.448;2023-12-20T09:21:04;100844.09;;;8.59;100.00
28306;BME280;7516;43.570;1.448;2023-12-20T09:23:32;100854.53;;;8.59;100.00
28306;BME280;7516;43.570;1.448;2023-12-20T09:25:59;100874.75;;;8.57;100.00
28306;BME280;7516;43.570;1.448;2023-12-20T09:28:27;100859.78;;;8.59;100.00
28306;BME280;7516;43.570;1.448;2023-12-20T09:30:54;100862.69;;;8.65;100.00
28306;BME280;7516;43.570;1.448;2023-12-20T09:33:23;100864.47;;;8.65;100.00
28306;BME280;7516;43.570;1.448;2023-12-20T09:35:51;100868.34;;;8.71;100.00
28306;BME280;7516;43.570;1.448;2023-12-20T09:38:18;100870.41;;;8.67;100.00
28306;BME280;7516;43.570;1.448;2023-12-20T09:40:46;100881.03;;;8.75;100.00
28306;BME280;7516;43.570;1.448;2023-12-20T09:43:15;100873.59;;;8.80;100.00
28306;BME280;7516;43.570;1.448;2023-12-20T09:45:45;100877.63;;;8.84;100.00
28306;BME280;7516;43.570;1.448;2023-12-20T09:48:13;100890.53;;;8.76;100.00
28306;BME280;7516;43.570;1.448;2023-12-20T09:50:46;100881.84;;;8.76;100.00
28306;BME280;7516;43.570;1.448;2023-12-20T09:53:16;100877.44;;;8.76;100.00
28306;BME280;7516;43.570;1.448;2023-12-20T09:55:45;100877.88;;;8.81;100.00
28306;BME280;7516;43.570;1.448;2023-12-20T09:58:13;100879.44;;;8.93;100.00
28306;BME280;7516;43.570;1.448;2023-12-20T10:00:40;100884.13;;;8.99;100.00
28306;BME280;7516;43.570;1.448;2023-12-20T10:03:09;100870.69;;;9.04;100.00
28306;BME280;7516;43.570;1.448;2023-12-20T10:05:40;100882.22;;;9.01;100.00
28306;BME280;7516;43.570;1.448;2023-12-20T10:08:11;100885.81;;;9.10;100.00
28306;BME280;7516;43.570;1.448;2023-12-20T10:10:39;100895.44;;;9.10;100.00
28306;BME280;7516;43.570;1.448;2023-12-20T10:13:08;100893.38;;;9.03;100.00
28306;BME280;7516;43.570;1.448;2023-12-20T10:15:36;100887.34;;;9.13;100.00
28306;BME280;7516;43.570;1.448;2023-12-20T10:18:05;100891.06;;;9.10;100.00
28306;BME280;7516;43.570;1.448;2023-12-20T10:20:33;100890.22;;;9.10;100.00
28306;BME280;7516;43.570;1.448;2023-12-20T10:23:01;100890.53;;;9.26;100.00
28306;BME280;7516;43.570;1.448;2023-12-20T10:25:31;100886.25;;;9.25;100.00
28306;BME280;7516;43.570;1.448;2023-12-20T10:28:14;100885.03;;;9.29;100.00
28306;BME280;7516;43.570;1.448;2023-12-20T10:30:43;100886.41;;;9.33;100.00
28306;BME280;7516;43.570;1.448;2023-12-20T10:33:11;100879.53;;;9.41;100.00
28306;BME280;7516;43.570;1.448;2023-12-20T10:35:39;100876.50;;;9.27;100.00
28306;BME280;7516;43.570;1.448;2023-12-20T10:38:08;100876.38;;;9.28;100.00
28306;BME280;7516;43.570;1.448;2023-12-20T10:40:37;100860.69;;;9.38;100.00
28306;BME280;7516;43.570;1.448;2023-12-20T10:43:05;100878.75;;;9.41;100.00
28306;BME280;7516;43.570;1.448;2023-12-20T10:45:33;100866.63;;;9.40;100.00
28306;BME280;7516;43.570;1.448;2023-12-20T10:48:02;100863.03;;;9.31;100.00
28306;BME280;7516;43.570;1.448;2023-12-20T10:50:30;100863.41;;;9.27;100.00
28306;BME280;7516;43.570;1.448;2023-12-20T10:53:01;100871.53;;;9.24;100.00
28306;BME280;7516;43.570;1.448;2023-12-20T10:55:29;100873.19;;;9.25;100.00
28306;BME280;7516;43.570;1.448;2023-12-20T10:58:05;100886.09;;;9.17;100.00
28306;BME280;7516;43.570;1.448;2023-12-20T11:00:36;100873.19;;;9.25;100.00
28306;BME280;7516;43.570;1.448;2023-12-20T11:03:06;100867.00;;;9.26;100.00
28306;BME280;7516;43.570;1.448;2023-12-20T11:05:40;100869.19;;;9.21;100.00
28306;BME280;7516;43.570;1.448;2023-12-20T11:08:12;100873.47;;;9.22;100.00
28306;BME280;7516;43.570;1.448;2023-12-20T11:10:47;100875.38;;;9.20;100.00
28306;BME280;7516;43.570;1.448;2023-12-20T11:13:22;100865.84;;;9.09;100.00
28306;BME280;7516;43.570;1.448;2023-12-20T11:15:50;100862.13;;;9.02;100.00
28306;BME280;7516;43.570;1.448;2023-12-20T11:18:18;100862.81;;;8.94;100.00
28306;BME280;7516;43.570;1.448;2023-12-20T11:20:45;100869.53;;;8.87;100.00
28306;BME280;7516;43.570;1.448;2023-12-20T11:23:13;100861.69;;;8.87;100.00
28306;BME280;7516;43.570;1.448;2023-12-20T11:25:51;100849.44;;;8.88;100.00
28306;BME280;7516;43.570;1.448;2023-12-20T11:28:24;100858.81;;;9.00;100.00
28306;BME280;7516;43.570;1.448;2023-12-20T11:30:55;100877.94;;;9.00;100.00
28306;BME280;7516;43.570;1.448;2023-12-20T11:33:29;100864.88;;;9.00;100.00
28306;BME280;7516;43.570;1.448;2023-12-20T11:35:57;100844.25;;;9.07;100.00
28306;BME280;7516;43.570;1.448;2023-12-20T11:38:26;100845.66;;;9.21;100.00
28306;BME280;7516;43.570;1.448;2023-12-20T11:40:55;100842.59;;;9.16;100.00
28306;BME280;7516;43.570;1.448;2023-12-20T11:43:36;100836.72;;;9.33;100.00
28306;BME280;7516;43.570;1.448;2023-12-20T11:46:05;100828.59;;;9.36;100.00
28306;BME280;7516;43.570;1.448;2023-12-20T11:48:35;100844.31;;;9.36;100.00
28306;BME280;7516;43.570;1.448;2023-12-20T11:51:08;100835.75;;;9.34;100.00
28306;BME280;7516;43.570;1.448;2023-12-20T11:53:36;100836.88;;;9.31;100.00
28306;BME280;7516;43.570;1.448;2023-12-20T11:56:05;100860.00;;;9.36;100.00
28306;BME280;7516;43.570;1.448;2023-12-20T11:58:34;100824.22;;;9.46;99.31
28306;BME280;7516;43.570;1.448;2023-12-20T12:01:02;100833.03;;;9.45;95.32
28306;BME280;7516;43.570;1.448;2023-12-20T12:03:30;100841.44;;;9.49;93.33
28306;BME280;7516;43.570;1.448;2023-12-20T12:05:58;100823.78;;;9.51;93.33
28306;BME280;7516;43.570;1.448;2023-12-20T12:08:27;100822.41;;;9.37;91.97
28306;BME280;7516;43.570;1.448;2023-12-20T12:10:54;100828.19;;;9.31;93.03
28306;BME280;7516;43.570;1.448;2023-12-20T12:13:22;100834.78;;;9.25;92.39
28306;BME280;7516;43.570;1.448;2023-12-20T12:15:55;100850.88;;;9.21;92.79
28306;BME280;7516;43.570;1.448;2023-12-20T12:18:24;100827.91;;;9.24;93.44
28306;BME280;7516;43.570;1.448;2023-12-20T12:21:00;100843.59;;;9.24;93.76
28306;BME280;7516;43.570;1.448;2023-12-20T12:23:28;100827.78;;;9.35;93.51
28306;BME280;7516;43.570;1.448;2023-12-20T12:25:56;100828.63;;;9.46;94.04
28306;BME280;7516;43.570;1.448;2023-12-20T12:28:26;100833.72;;;9.47;91.67
28306;BME280;7516;43.570;1.448;2023-12-20T12:30:59;100849.28;;;9.49;88.50
28306;BME280;7516;43.570;1.448;2023-12-20T12:33:27;100850.25;;;9.57;87.18
28306;BME280;7516;43.570;1.448;2023-12-20T12:35:55;100834.13;;;9.71;86.92
28306;BME280;7516;43.570;1.448;2023-12-20T12:38:23;100849.56;;;9.74;83.67
28306;BME280;7516;43.570;1.448;2023-12-20T12:40:51;100841.28;;;9.89;84.43
28306;BME280;7516;43.570;1.448;2023-12-20T12:43:19;100853.97;;;9.84;82.22
28306;BME280;7516;43.570;1.448;2023-12-20T12:45:48;100841.53;;;9.86;83.96
28306;BME280;7516;43.570;1.448;2023-12-20T12:48:17;100862.22;;;9.89;83.88
28306;BME280;7516;43.570;1.448;2023-12-20T12:50:46;100866.34;;;9.62;84.65
28306;BME280;7516;43.570;1.448;2023-12-20T12:53:13;100859.28;;;9.34;85.99
28306;BME280;7516;43.570;1.448;2023-12-20T12:55:41;100878.69;;;9.22;87.17
28306;BME280;7516;43.570;1.448;2023-12-20T12:58:08;100864.06;;;9.10;87.18
28306;BME280;7516;43.570;1.448;2023-12-20T13:00:36;100881.25;;;9.02;86.45
28306;BME280;7516;43.570;1.448;2023-12-20T13:03:03;100866.78;;;8.98;85.19
28306;BME280;7516;43.570;1.448;2023-12-20T13:05:32;100869.69;;;8.95;85.28